Time;durP1;ratioP1;P1;durP2;ratioP2;P2;SDS_P1;SDS_P2;PMS_P1;PMS_P2;Temp;Humidity;BMP_temperature;BMP_pressure;BME280_temperature;BME280_humidity;BME280_pressure;Samples;Min_cycle;Max_cycle;Signal;HPM_P1;HPM_P2
2021/07/30 00:01:07;;;;;;;13.88;4.50;;;;;;;19.03;57.83;100172.25;4952572;58;21182;-76
2021/07/30 00:06:13;;;;;;;4.28;3.50;;;;;;;18.84;57.87;100174.42;4958930;58;21183;-77
2021/07/30 00:11:19;;;;;;;7.08;4.03;;;;;;;18.69;58.18;100168.69;5068412;57;22106;-77
2021/07/30 00:16:24;;;;;;;10.45;4.55;;;;;;;18.65;58.64;100167.38;5141926;57;21901;-77
2021/07/30 00:21:30;;;;;;;7.70;4.05;;;;;;;18.77;59.06;100165.96;5138884;57;21161;-76
2021/07/30 00:26:36;;;;;;;9.68;3.55;;;;;;;18.89;59.07;100171.20;5152471;57;21258;-77
2021/07/30 00:31:42;;;;;;;11.03;3.50;;;;;;;18.89;58.69;100169.87;5145466;57;21190;-76
2021/07/30 00:36:48;;;;;;;8.00;4.20;;;;;;;18.76;58.36;100169.15;5145302;57;21154;-76
2021/07/30 00:41:53;;;;;;;7.80;4.40;;;;;;;18.66;58.64;100169.88;5145523;57;21150;-77
2021/07/30 00:47:00;;;;;;;8.85;4.00;;;;;;;18.71;59.06;100173.36;5143966;57;21155;-77
2021/07/30 00:52:06;;;;;;;10.48;3.42;;;;;;;18.64;58.78;100171.09;5152177;57;21181;-77
2021/07/30 00:57:12;;;;;;;7.10;3.77;;;;;;;18.59;58.79;100164.92;5127851;57;21147;-76
2021/07/30 01:02:18;;;;;;;6.97;3.58;;;;;;;18.56;59.04;100175.45;5141157;57;22028;-77
2021/07/30 01:07:24;;;;;;;14.23;4.67;;;;;;;18.53;59.13;100173.13;5145627;57;21103;-77
2021/07/30 01:12:30;;;;;;;13.78;4.00;;;;;;;18.55;59.34;100172.95;5022996;57;21640;-77
2021/07/30 01:17:35;;;;;;;12.47;3.35;;;;;;;18.60;59.62;100179.98;4992385;59;21779;-77
2021/07/30 01:23:00;;;;;;;14.95;3.58;;;;;;;18.52;59.12;100183.52;4954735;58;21174;-77
2021/07/30 01:28:06;;;;;;;8.95;3.92;;;;;;;18.39;59.29;100181.10;4945236;58;21770;-76
2021/07/30 01:33:11;;;;;;;20.48;8.98;;;;;;;18.30;59.60;100184.86;4971658;58;21186;-77
2021/07/30 01:38:17;;;;;;;35.80;12.78;;;;;;;18.18;59.76;100183.09;4985492;58;21183;-76
2021/07/30 01:43:22;;;;;;;36.23;17.03;;;;;;;18.05;60.05;100184.14;4943890;58;21515;-76
2021/07/30 01:48:28;;;;;;;24.92;10.93;;;;;;;17.93;60.43;100183.70;4966301;58;21183;-76
2021/07/30 01:53:34;;;;;;;16.50;6.92;;;;;;;17.89;60.57;100175.69;4982347;58;21624;-77
2021/07/30 01:58:41;;;;;;;5.90;4.62;;;;;;;17.91;60.63;100179.02;4963544;58;21211;-75
2021/07/30 02:03:46;;;;;;;7.03;3.63;;;;;;;17.95;60.64;100173.66;4976671;58;21284;-76
2021/07/30 02:08:52;;;;;;;13.33;3.60;;;;;;;18.00;60.67;100178.00;4978489;58;21770;-77
2021/07/30 02:14:16;;;;;;;8.75;3.37;;;;;;;18.04;60.83;100182.47;4995251;58;21158;-77
2021/07/30 02:19:23;;;;;;;6.67;3.33;;;;;;;18.04;60.72;100181.12;4990543;58;21574;-77
2021/07/30 02:24:29;;;;;;;7.03;2.87;;;;;;;18.00;60.70;100186.02;4990410;58;21205;-77
2021/07/30 02:29:34;;;;;;;6.73;3.40;;;;;;;17.94;60.79;100180.02;4992147;58;21648;-77
2021/07/30 02:34:40;;;;;;;7.53;3.30;;;;;;;17.94;60.92;100178.68;4991359;58;21191;-77
2021/07/30 02:39:46;;;;;;;5.58;2.75;;;;;;;17.96;60.83;100175.84;4986638;58;21171;-76
2021/07/30 02:44:52;;;;;;;5.73;2.60;;;;;;;17.98;60.57;100169.30;4994259;58;21151;-76
2021/07/30 02:49:58;;;;;;;3.30;2.60;;;;;;;17.95;60.46;100176.84;4988454;58;21286;-77
2021/07/30 02:55:03;;;;;;;9.65;3.00;;;;;;;17.90;60.55;100174.68;4994383;58;21213;-76
2021/07/30 03:00:10;;;;;;;8.08;2.42;;;;;;;17.91;60.77;100183.04;5024797;57;22129;-76
2021/07/30 03:05:15;;;;;;;10.20;3.10;;;;;;;17.92;60.78;100185.55;4960115;58;21200;-76
2021/07/30 03:10:21;;;;;;;6.10;3.15;;;;;;;17.92;60.76;100179.36;4917376;58;21185;-74
2021/07/30 03:15:26;;;;;;;6.03;3.83;;;;;;;17.93;60.67;100186.37;4924471;58;21182;-75
2021/07/30 03:20:32;;;;;;;11.57;4.23;;;;;;;17.87;60.54;100191.11;4870716;59;21121;-75
2021/07/30 03:25:38;;;;;;;13.70;4.33;;;;;;;17.78;60.44;100191.62;5070074;57;21640;-74
2021/07/30 03:30:44;;;;;;;7.63;3.27;;;;;;;17.67;60.55;100189.84;5008988;58;22043;-76
2021/07/30 03:35:49;;;;;;;6.87;3.00;;;;;;;17.54;60.82;100199.22;4919095;59;21234;-76
2021/07/30 03:40:55;;;;;;;8.13;2.97;;;;;;;17.47;61.20;100198.72;4927459;57;21474;-76
2021/07/30 03:46:01;;;;;;;6.87;3.63;;;;;;;17.44;61.59;100201.73;4957313;58;21181;-76
2021/07/30 03:51:07;;;;;;;3.20;2.30;;;;;;;17.40;61.98;100203.93;4956861;58;21244;-76
2021/07/30 03:56:17;;;;;;;11.50;5.27;;;;;;;17.34;61.96;100196.58;4941807;58;21226;-76
2021/07/30 04:01:23;;;;;;;15.00;3.70;;;;;;;17.26;62.10;100199.28;4881893;59;21142;-75
2021/07/30 04:06:29;;;;;;;8.40;3.23;;;;;;;17.20;62.37;100203.45;4944067;58;21177;-76
2021/07/30 04:11:34;;;;;;;7.47;2.67;;;;;;;17.23;62.60;100208.47;4953172;58;21157;-76
2021/07/30 04:16:41;;;;;;;9.23;3.10;;;;;;;17.23;62.67;100209.81;5042725;57;22052;-77
2021/07/30 04:21:47;;;;;;;8.13;2.60;;;;;;;17.26;62.86;100202.46;5047794;56;21162;-76
2021/07/30 04:26:53;;;;;;;5.60;2.93;;;;;;;17.29;62.78;100199.42;4973700;58;21189;-77
2021/07/30 04:31:59;;;;;;;3.93;2.70;;;;;;;17.28;62.70;100203.93;4898609;58;21596;-76
2021/07/30 04:37:05;;;;;;;6.13;3.07;;;;;;;17.26;62.73;100197.95;5041507;58;21229;-77
2021/07/30 04:42:11;;;;;;;3.50;2.60;;;;;;;17.25;62.79;100194.11;4837969;58;23139;-76
2021/07/30 04:47:16;;;;;;;10.17;2.80;;;;;;;17.27;62.75;100192.91;4873289;58;21196;-77
2021/07/30 04:52:22;;;;;;;10.53;2.63;;;;;;;17.30;62.69;100195.74;4837375;59;21185;-76
2021/07/30 04:57:28;;;;;;;7.70;3.00;;;;;;;17.35;62.64;100196.08;4839885;59;21522;-76
2021/07/30 05:02:34;;;;;;;8.63;3.60;;;;;;;17.39;62.35;100194.23;4878748;58;21140;-77
2021/07/30 05:07:42;;;;;;;6.33;2.70;;;;;;;17.43;62.28;100198.22;4924750;60;21645;-77
2021/07/30 05:12:48;;;;;;;19.47;3.93;;;;;;;17.50;62.27;100195.70;5056850;58;21150;-77
2021/07/30 05:17:54;;;;;;;7.67;2.73;;;;;;;17.58;62.02;100191.66;5112157;58;21467;-77
2021/07/30 05:22:59;;;;;;;3.17;2.03;;;;;;;17.64;61.62;100191.02;5102603;58;21183;-76
2021/07/30 05:28:05;;;;;;;3.77;2.70;;;;;;;17.71;61.20;100184.48;5107648;58;21834;-75
2021/07/30 05:33:11;;;;;;;9.33;3.17;;;;;;;17.81;61.09;100182.42;5109117;58;21203;-76
2021/07/30 05:38:17;;;;;;;6.20;2.30;;;;;;;17.92;60.85;100184.70;5110574;58;21509;-77
2021/07/30 05:43:23;;;;;;;11.93;2.77;;;;;;;18.06;60.90;100184.47;5113065;58;21099;-74
2021/07/30 05:48:28;;;;;;;11.43;2.30;;;;;;;18.19;60.49;100180.72;5118126;58;21156;-76
2021/07/30 05:53:34;;;;;;;6.33;2.10;;;;;;;18.31;60.10;100182.51;5115648;58;21182;-75
2021/07/30 05:58:39;;;;;;;7.27;2.30;;;;;;;18.35;59.42;100183.29;5111613;58;21158;-77
2021/07/30 06:03:46;;;;;;;3.80;1.98;;;;;;;18.48;59.56;100187.58;4991163;58;21162;-77
2021/07/30 06:08:51;;;;;;;7.03;2.03;;;;;;;18.69;59.73;100179.41;4933696;58;21189;-77
2021/07/30 06:13:57;;;;;;;9.10;2.72;;;;;;;18.75;58.79;100172.84;4986432;58;21615;-75
2021/07/30 06:19:02;;;;;;;3.72;2.42;;;;;;;18.83;58.64;100175.94;4983443;58;21170;-77
2021/07/30 06:24:09;;;;;;;8.33;2.98;;;;;;;19.02;58.14;100175.95;4958962;58;21721;-74
2021/07/30 06:29:14;;;;;;;5.15;1.82;;;;;;;19.15;55.85;100168.94;4947134;58;21449;-75
2021/07/30 06:34:19;;;;;;;6.55;2.17;;;;;;;19.30;56.41;100163.08;4926825;59;21123;-76
2021/07/30 06:39:26;;;;;;;13.83;2.10;;;;;;;19.48;55.85;100160.55;4920337;59;21619;-77
2021/07/30 06:44:31;;;;;;;12.95;2.27;;;;;;;19.63;54.38;100168.95;4958146;58;22167;-77
2021/07/30 06:49:39;;;;;;;8.03;2.20;;;;;;;19.79;53.24;100159.03;4941911;58;21111;-77
2021/07/30 06:54:45;;;;;;;8.68;2.20;;;;;;;19.89;53.33;100164.93;4914518;58;21111;-75
2021/07/30 06:59:51;;;;;;;5.67;2.45;;;;;;;20.05;53.42;100159.34;4913602;59;21249;-77
2021/07/30 07:04:57;;;;;;;5.72;1.72;;;;;;;20.23;52.22;100160.27;4927018;58;22078;-78
2021/07/30 07:10:02;;;;;;;2.58;1.57;;;;;;;20.35;52.07;100161.42;4976918;58;21190;-76
2021/07/30 07:15:09;;;;;;;9.03;2.00;;;;;;;20.47;50.14;100151.86;5105540;58;21158;-77
2021/07/30 07:20:15;;;;;;;6.85;1.67;;;;;;;20.58;50.62;100153.23;5030551;58;21170;-76
2021/07/30 07:25:20;;;;;;;4.65;1.75;;;;;;;20.76;50.00;100148.73;5002047;59;21582;-77
2021/07/30 07:30:27;;;;;;;2.87;1.52;;;;;;;20.91;49.09;100145.45;4914014;59;21593;-75
2021/07/30 07:35:32;;;;;;;6.87;2.10;;;;;;;21.04;47.39;100134.79;4988137;58;21220;-75
2021/07/30 07:40:38;;;;;;;5.12;1.47;;;;;;;21.16;47.17;100138.59;4994938;58;21192;-77
2021/07/30 07:45:44;;;;;;;12.68;1.87;;;;;;;21.32;46.17;100133.45;5018818;59;21301;-75
2021/07/30 07:50:50;;;;;;;5.47;2.22;;;;;;;21.41;47.21;100134.42;4946465;58;21182;-77
2021/07/30 07:56:04;;;;;;;2.20;1.87;;;;;;;21.52;45.14;100130.36;4909655;58;21220;-76
2021/07/30 08:01:14;;;;;;;7.20;2.72;;;;;;;21.58;44.42;100125.51;5006398;58;21177;-75
2021/07/30 08:06:22;;;;;;;6.70;1.72;;;;;;;21.65;45.11;100121.00;4962372;58;21246;-76
2021/07/30 08:11:27;;;;;;;6.50;2.17;;;;;;;21.77;45.25;100111.83;4892343;59;21105;-76
2021/07/30 08:16:33;;;;;;;6.40;1.45;;;;;;;21.91;45.19;100108.14;4969943;59;21614;-78
2021/07/30 08:21:39;;;;;;;2.90;1.30;;;;;;;22.08;45.25;100109.98;4981185;58;21112;-78
2021/07/30 08:26:44;;;;;;;9.80;1.92;;;;;;;22.13;42.99;100113.42;4991870;58;21168;-78
2021/07/30 08:31:50;;;;;;;8.08;2.75;;;;;;;22.03;44.01;100113.28;4988566;58;21568;-79
2021/07/30 08:36:56;;;;;;;2.98;1.62;;;;;;;22.16;44.10;100106.26;4992554;58;21170;-78
2021/07/30 08:42:05;;;;;;;16.80;1.80;;;;;;;22.45;42.73;100091.92;4987952;58;21467;-78
2021/07/30 08:47:13;;;;;;;5.35;2.10;;;;;;;22.59;42.37;100087.37;4956637;57;21126;-78
2021/07/30 08:52:20;;;;;;;2.00;1.12;;;;;;;22.76;42.73;100085.08;4966323;57;22559;-78
2021/07/30 08:57:25;;;;;;;5.42;1.77;;;;;;;22.70;41.06;100084.55;5002011;57;22108;-78
2021/07/30 09:02:31;;;;;;;7.65;2.05;;;;;;;22.77;41.53;100086.74;4946505;57;21171;-78
2021/07/30 09:07:42;;;;;;;2.95;1.82;;;;;;;22.77;43.08;100078.66;4936595;57;21189;-79
2021/07/30 09:12:48;;;;;;;3.83;1.65;;;;;;;22.92;42.43;100073.86;4946984;58;21472;-78
2021/07/30 09:17:54;;;;;;;6.80;2.72;;;;;;;22.72;41.54;100073.88;4981942;58;21234;-78
2021/07/30 09:23:00;;;;;;;6.65;1.47;;;;;;;22.97;41.09;100069.20;4917344;58;21162;-78
2021/07/30 09:28:08;;;;;;;3.60;1.25;;;;;;;23.17;40.68;100050.28;4982323;58;21179;-78
2021/07/30 09:33:26;;;;;;;3.75;1.52;;;;;;;23.41;40.08;100048.20;4909584;59;21212;-78
2021/07/30 09:38:31;;;;;;;2.30;1.20;;;;;;;23.51;39.23;100062.12;5005814;58;21184;-78
2021/07/30 09:43:38;;;;;;;4.00;1.92;;;;;;;23.57;39.83;100062.61;4986334;59;21196;-78
2021/07/30 09:48:52;;;;;;;4.40;1.42;;;;;;;23.75;40.53;100040.30;4975673;59;21178;-79
2021/07/30 09:54:00;;;;;;;3.67;1.82;;;;;;;23.81;40.69;100040.80;4975657;58;21177;-78
2021/07/30 09:59:07;;;;;;;7.22;1.70;;;;;;;23.91;39.84;100041.14;4973558;58;21177;-78
2021/07/30 10:04:13;;;;;;;8.58;1.25;;;;;;;24.00;39.36;100040.34;4996203;58;21191;-78
2021/07/30 10:09:20;;;;;;;5.75;2.20;;;;;;;23.82;38.88;100018.14;4993439;57;21163;-76
2021/07/30 10:14:28;;;;;;;6.30;2.25;;;;;;;23.80;40.23;100035.09;5051440;57;21170;-78
2021/07/30 10:19:33;;;;;;;3.02;1.10;;;;;;;24.00;39.49;100016.86;4914117;58;21629;-77
2021/07/30 10:24:52;;;;;;;8.05;1.40;;;;;;;24.13;38.75;100022.19;4925895;58;21228;-78
2021/07/30 10:30:12;;;;;;;1.10;1.05;;;;;;;24.14;39.25;100013.53;4973968;58;21225;-77
2021/07/30 10:35:32;;;;;;;7.58;1.65;;;;;;;24.31;38.83;99997.63;4992912;58;21555;-78
2021/07/30 10:40:37;;;;;;;5.83;1.37;;;;;;;24.29;37.77;100008.66;4977650;58;21691;-78
2021/07/30 10:45:46;;;;;;;4.03;1.20;;;;;;;24.50;39.90;99986.66;4981574;58;21182;-77
2021/07/30 10:51:04;;;;;;;3.12;1.27;;;;;;;24.63;37.49;99992.98;4987103;58;21186;-78
2021/07/30 10:56:23;;;;;;;5.37;1.52;;;;;;;24.60;38.55;99983.42;4929493;58;21162;-78
2021/07/30 11:01:42;;;;;;;8.55;1.60;;;;;;;24.71;39.44;99986.77;4912320;59;21620;-78
2021/07/30 11:06:54;;;;;;;4.00;1.92;;;;;;;24.61;39.25;99975.63;4917984;59;21173;-78
2021/07/30 11:12:04;;;;;;;3.42;1.20;;;;;;;24.56;40.88;99978.19;5044121;57;21517;-78
2021/07/30 11:17:12;;;;;;;4.53;1.87;;;;;;;24.73;38.84;99991.95;5154482;57;21183;-78
2021/07/30 11:22:20;;;;;;;2.80;1.80;;;;;;;24.72;39.29;99988.42;5137361;57;21150;-77
2021/07/30 11:27:26;;;;;;;4.45;1.27;;;;;;;24.49;39.37;99963.89;5141683;57;22063;-77
2021/07/30 11:32:33;;;;;;;1.20;1.20;;;;;;;24.70;39.57;99966.70;5149772;57;21628;-77
2021/07/30 11:37:39;;;;;;;3.37;1.40;;;;;;;25.03;39.34;99970.42;5136623;57;21166;-77
2021/07/30 11:42:45;;;;;;;10.10;2.37;;;;;;;25.14;38.12;99976.42;5128353;57;21215;-77
2021/07/30 11:47:52;;;;;;;4.17;1.90;;;;;;;25.31;36.94;99969.86;4944896;59;21187;-77
2021/07/30 11:53:06;;;;;;;6.08;1.72;;;;;;;25.30;37.19;99952.80;4899079;59;21180;-78
2021/07/30 11:58:12;;;;;;;3.60;1.20;;;;;;;25.35;38.39;99951.59;4895632;59;21133;-77
2021/07/30 12:03:22;;;;;;;10.25;1.65;;;;;;;25.37;37.36;99944.56;4899157;59;21216;-78
2021/07/30 12:08:32;;;;;;;15.68;2.40;;;;;;;25.51;37.22;99943.36;4922737;59;21636;-78
2021/07/30 12:13:37;;;;;;;1.98;1.20;;;;;;;25.69;38.26;99931.11;5053242;58;21215;-77
2021/07/30 12:18:45;;;;;;;5.20;1.45;;;;;;;25.79;38.75;99930.03;5095440;58;21166;-77
2021/07/30 12:23:51;;;;;;;2.95;1.45;;;;;;;25.78;37.83;99941.93;5115916;58;21190;-78
2021/07/30 12:28:56;;;;;;;6.33;1.45;;;;;;;25.54;38.51;99931.52;5115990;58;21172;-78
2021/07/30 12:34:20;;;;;;;7.45;1.85;;;;;;;25.64;38.29;99928.30;5110850;58;22101;-78
2021/07/30 12:39:30;;;;;;;1.57;1.20;;;;;;;25.88;37.55;99919.67;5009385;58;21156;-78
2021/07/30 12:44:37;;;;;;;5.80;1.45;;;;;;;26.05;36.16;99911.69;4971419;58;21614;-78
2021/07/30 12:49:44;;;;;;;4.95;1.25;;;;;;;26.04;36.37;99915.45;4915848;58;21693;-78
2021/07/30 12:55:05;;;;;;;3.65;1.25;;;;;;;26.17;36.98;99898.95;4930201;59;21263;-77
2021/07/30 13:00:13;;;;;;;7.25;2.55;;;;;;;26.22;36.61;99897.73;4925617;59;21177;-77
2021/07/30 13:05:32;;;;;;;;;;;;;;;26.36;37.31;99901.05;4954298;58;21186;-78
2021/07/30 13:10:37;;;;;;;6.75;1.27;;;;;;;26.42;36.93;99890.09;4982706;57;20862;-78
2021/07/30 13:15:50;;;;;;;5.08;1.22;;;;;;;26.37;36.61;99899.99;5140799;57;21485;-77
2021/07/30 13:20:56;;;;;;;9.03;1.92;;;;;;;26.39;36.35;99886.50;5075740;57;21174;-78
2021/07/30 13:26:01;;;;;;;7.75;1.60;;;;;;;26.46;35.57;99892.60;5023936;57;21189;-78
2021/07/30 13:31:07;;;;;;;4.08;1.50;;;;;;;26.46;35.85;99869.55;4940618;58;21181;-78
2021/07/30 13:36:13;;;;;;;12.10;2.65;;;;;;;26.45;37.04;99867.90;4906512;58;21150;-78
2021/07/30 13:41:18;;;;;;;3.08;1.30;;;;;;;26.49;36.97;99868.25;4915969;59;21175;-78
2021/07/30 13:46:24;;;;;;;2.20;1.30;;;;;;;26.67;36.19;99873.53;4932238;58;21571;-78
2021/07/30 13:51:30;;;;;;;4.97;1.92;;;;;;;26.84;35.89;99863.58;4897798;59;21228;-77
2021/07/30 13:56:37;;;;;;;7.28;1.47;;;;;;;26.69;35.84;99865.16;4946850;58;21180;-78
2021/07/30 14:01:42;;;;;;;9.93;1.27;;;;;;;26.83;36.24;99858.38;4952598;59;21207;-78
2021/07/30 14:06:48;;;;;;;5.20;1.52;;;;;;;26.85;34.99;99863.87;4984632;59;21315;-78
2021/07/30 14:11:54;;;;;;;2.80;1.55;;;;;;;26.91;35.20;99856.63;4977823;58;21203;-78
2021/07/30 14:17:00;;;;;;;2.40;1.35;;;;;;;26.81;34.35;99846.95;4979047;59;21110;-77
2021/07/30 14:22:08;;;;;;;7.17;1.87;;;;;;;26.75;35.68;99847.89;4903721;58;21194;-77
2021/07/30 14:27:15;;;;;;;3.00;2.15;;;;;;;26.85;35.40;99846.23;4971735;58;21204;-77
2021/07/30 14:32:20;;;;;;;4.37;1.70;;;;;;;27.00;35.13;99846.27;4949326;58;21225;-78
2021/07/30 14:37:26;;;;;;;4.58;1.72;;;;;;;26.90;34.38;99859.05;4987137;58;21701;-77
2021/07/30 14:42:33;;;;;;;4.10;1.50;;;;;;;26.80;35.09;99852.08;4987431;58;21173;-77
2021/07/30 14:47:39;;;;;;;10.48;2.20;;;;;;;26.67;35.42;99845.58;4969222;58;21220;-77
2021/07/30 14:52:44;;;;;;;5.47;1.92;;;;;;;26.73;35.29;99845.45;4929897;58;21239;-77
2021/07/30 14:57:50;;;;;;;3.80;1.50;;;;;;;26.93;35.80;99854.00;4931559;58;21562;-77
2021/07/30 15:02:56;;;;;;;11.15;2.02;;;;;;;26.95;35.88;99837.48;4936503;58;21142;-77
2021/07/30 15:08:01;;;;;;;5.80;1.92;;;;;;;26.95;35.66;99835.59;4950700;58;21243;-77
2021/07/30 15:13:06;;;;;;;3.98;1.92;;;;;;;26.80;35.16;99837.98;5072703;58;21676;-77
2021/07/30 15:18:12;;;;;;;7.30;2.20;;;;;;;26.72;35.35;99834.30;5063075;58;21209;-77
2021/07/30 15:23:17;;;;;;;4.45;2.10;;;;;;;26.74;36.16;99832.15;4954606;58;21848;-78
2021/07/30 15:28:23;;;;;;;5.42;2.10;;;;;;;26.76;35.77;99835.45;4921565;59;21241;-75
2021/07/30 15:33:29;;;;;;;3.42;1.62;;;;;;;26.79;35.32;99826.83;4927185;59;21180;-77
2021/07/30 15:38:35;;;;;;;7.05;1.87;;;;;;;26.71;36.24;99834.02;4969435;58;21623;-77
2021/07/30 15:43:41;;;;;;;3.72;1.25;;;;;;;26.63;35.97;99829.77;5005416;58;21133;-77
2021/07/30 15:48:46;;;;;;;9.08;1.62;;;;;;;26.52;36.79;99831.99;5004223;58;21170;-77
2021/07/30 15:53:52;;;;;;;2.40;1.75;;;;;;;26.42;36.66;99832.33;5006754;58;21172;-78
2021/07/30 15:59:00;;;;;;;7.08;1.40;;;;;;;26.38;36.63;99833.86;4966217;58;21172;-77
2021/07/30 16:04:05;;;;;;;8.58;1.52;;;;;;;26.38;36.20;99838.75;4923464;59;21180;-75
2021/07/30 16:09:11;;;;;;;10.48;1.42;;;;;;;26.30;36.28;99835.56;4986520;58;21110;-76
2021/07/30 16:14:16;;;;;;;3.02;1.77;;;;;;;26.21;37.46;99827.77;5002031;58;21218;-76
2021/07/30 16:19:22;;;;;;;2.65;1.42;;;;;;;26.27;36.07;99824.66;4944038;58;21204;-75
2021/07/30 16:24:28;;;;;;;7.50;1.50;;;;;;;26.18;36.92;99819.28;4982932;59;21167;-76
2021/07/30 16:29:33;;;;;;;11.70;2.47;;;;;;;26.14;36.52;99822.17;4957838;59;22151;-76
2021/07/30 16:34:39;;;;;;;4.00;2.00;;;;;;;26.01;37.35;99827.31;4985989;59;21215;-76
2021/07/30 16:39:45;;;;;;;3.00;1.62;;;;;;;25.93;37.75;99827.16;5006776;57;21118;-76
2021/07/30 16:44:51;;;;;;;5.15;2.00;;;;;;;25.88;37.43;99820.25;4963105;58;21128;-76
2021/07/30 16:49:59;;;;;;;8.23;2.92;;;;;;;25.79;37.45;99816.26;5007791;57;21173;-75
2021/07/30 16:55:05;;;;;;;6.20;1.75;;;;;;;25.79;37.92;99816.26;4949277;57;21158;-76
2021/07/30 17:00:13;;;;;;;13.00;2.77;;;;;;;25.80;37.85;99817.91;5004148;57;21174;-76
2021/07/30 17:05:19;;;;;;;6.95;2.12;;;;;;;25.72;38.35;99818.77;5009137;58;21384;-76
2021/07/30 17:10:24;;;;;;;5.25;2.67;;;;;;;25.66;38.38;99817.02;5005252;58;21470;-75
2021/07/30 17:15:32;;;;;;;12.10;2.90;;;;;;;25.61;38.11;99814.14;4918108;58;21221;-75
2021/07/30 17:20:38;;;;;;;4.47;2.45;;;;;;;25.53;39.02;99809.88;4923843;58;21193;-76
2021/07/30 17:25:44;;;;;;;10.88;3.12;;;;;;;25.59;38.45;99803.02;5013476;59;21178;-75
2021/07/30 17:30:50;;;;;;;4.05;1.30;;;;;;;25.63;38.60;99807.47;5112916;57;21163;-75
2021/07/30 17:35:55;;;;;;;5.37;1.60;;;;;;;25.61;38.52;99805.49;5010028;59;21170;-76
2021/07/30 17:41:03;;;;;;;6.00;2.30;;;;;;;25.52;38.43;99800.11;4917709;58;21115;-76
2021/07/30 17:46:10;;;;;;;8.75;2.22;;;;;;;25.42;38.92;99804.75;4895608;58;21225;-75
2021/07/30 17:51:22;;;;;;;4.78;2.85;;;;;;;25.32;39.26;99800.45;5007130;59;21175;-75
2021/07/30 17:56:27;;;;;;;5.17;2.30;;;;;;;25.26;39.49;99797.31;5076605;56;21197;-75
2021/07/30 18:01:34;;;;;;;9.00;3.10;;;;;;;25.16;39.65;99798.41;4964499;58;21676;-75
2021/07/30 18:06:40;;;;;;;25.20;5.03;;;;;;;25.07;39.87;99800.60;4930547;59;21122;-74
2021/07/30 18:11:46;;;;;;;10.95;3.00;;;;;;;25.00;40.16;99805.30;4980830;58;21207;-74
2021/07/30 18:16:54;;;;;;;8.60;2.20;;;;;;;24.91;40.39;99806.63;4960845;58;21214;-73
2021/07/30 18:21:59;;;;;;;13.35;3.08;;;;;;;24.79;40.66;99807.12;4942376;58;21198;-73
2021/07/30 18:27:05;;;;;;;14.60;2.87;;;;;;;24.66;40.87;99811.36;4917223;59;21205;-73
2021/07/30 18:32:11;;;;;;;29.23;3.50;;;;;;;24.59;41.07;99814.69;4947024;58;21175;-74
2021/07/30 18:37:19;;;;;;;13.53;2.15;;;;;;;24.50;41.15;99818.20;4964892;58;21154;-74
2021/07/30 18:42:26;;;;;;;10.82;2.27;;;;;;;24.40;41.37;99819.27;4951180;58;21165;-74
2021/07/30 18:47:31;;;;;;;6.10;1.85;;;;;;;24.27;41.69;99807.27;4967062;58;22121;-74
2021/07/30 18:52:37;;;;;;;14.85;3.70;;;;;;;24.17;42.02;99807.73;4936003;58;21183;-75
2021/07/30 18:57:43;;;;;;;6.35;2.60;;;;;;;24.09;42.27;99812.93;4968117;58;21196;-74
2021/07/30 19:02:50;;;;;;;53.08;14.23;;;;;;;24.06;42.34;99820.65;4964990;58;21218;-75
2021/07/30 19:07:56;;;;;;;33.38;11.55;;;;;;;24.05;42.48;99814.94;4938949;58;23010;-74
2021/07/30 19:13:05;;;;;;;41.50;14.70;;;;;;;24.11;42.92;99822.99;5041564;56;27322;-74
2021/07/30 19:18:10;;;;;;;24.67;9.43;;;;;;;24.19;43.30;99825.91;4930096;59;23422;-74
2021/07/30 19:23:17;;;;;;;25.50;6.78;;;;;;;24.22;43.66;99826.81;4843292;59;21191;-76
2021/07/30 19:28:22;;;;;;;27.85;5.80;;;;;;;24.15;43.93;99829.58;4804783;60;21515;-74
2021/07/30 19:33:30;;;;;;;34.67;7.47;;;;;;;24.02;44.30;99831.06;4813052;60;21181;-74
2021/07/30 19:38:35;;;;;;;71.72;18.50;;;;;;;23.89;44.86;99839.30;4840564;59;21189;-73
2021/07/30 19:43:41;;;;;;;53.87;16.50;;;;;;;23.69;45.30;99836.77;4770722;60;21271;-74
2021/07/30 19:48:46;;;;;;;91.37;13.05;;;;;;;23.54;45.92;99838.14;4752401;61;21721;-75
2021/07/30 19:53:56;;;;;;;52.90;13.00;;;;;;;23.48;46.60;99843.36;4743763;60;21178;-74
2021/07/30 19:59:02;;;;;;;70.57;20.75;;;;;;;23.41;46.81;99843.09;4762352;60;21221;-74
2021/07/30 20:04:09;;;;;;;68.75;44.05;;;;;;;23.38;47.17;99854.31;4803117;60;21229;-74
2021/07/30 20:09:14;;;;;;;43.78;16.35;;;;;;;23.38;47.41;99851.62;4843949;59;21705;-71
2021/07/30 20:14:20;;;;;;;45.78;10.95;;;;;;;23.32;47.46;99846.59;4810852;60;21198;-72
2021/07/30 20:19:25;;;;;;;44.48;11.80;;;;;;;23.24;47.66;99840.61;4848616;60;21140;-73
2021/07/30 20:24:31;;;;;;;31.07;9.00;;;;;;;23.20;47.91;99840.77;4824556;59;22159;-74
2021/07/30 20:29:37;;;;;;;22.20;6.55;;;;;;;23.04;47.92;99840.76;4851268;59;21216;-73
2021/07/30 20:34:43;;;;;;;34.98;7.87;;;;;;;22.91;48.33;99834.09;4834111;59;21250;-73
2021/07/30 20:39:50;;;;;;;34.60;8.73;;;;;;;22.88;48.69;99832.65;4877876;59;21651;-73
2021/07/30 20:44:55;;;;;;;41.35;10.05;;;;;;;22.84;48.83;99834.63;4835748;59;21570;-73
2021/07/30 20:50:01;;;;;;;32.70;8.50;;;;;;;22.76;49.06;99839.73;4825836;59;21206;-75
2021/07/30 20:55:08;;;;;;;25.82;8.63;;;;;;;22.69;49.45;99838.41;4868853;59;21217;-75
2021/07/30 21:00:14;;;;;;;51.37;9.53;;;;;;;22.48;49.57;99839.20;4837231;59;21125;-75
2021/07/30 21:05:20;;;;;;;23.40;8.70;;;;;;;22.28;50.03;99834.72;4842200;59;21189;-76
2021/07/30 21:10:26;;;;;;;48.45;13.48;;;;;;;22.19;50.30;99840.53;4750720;60;21306;-75
2021/07/30 21:15:32;;;;;;;35.13;12.73;;;;;;;22.08;50.60;99828.55;4774018;60;21179;-76
2021/07/30 21:20:43;;;;;;;39.95;11.90;;;;;;;21.83;50.89;99824.84;4809743;60;21233;-76
2021/07/30 21:25:50;;;;;;;80.00;11.87;;;;;;;21.67;51.36;99824.22;4830777;60;21276;-76
2021/07/30 21:30:55;;;;;;;17.77;5.53;;;;;;;21.64;51.85;99821.94;4873525;59;21934;-75
2021/07/30 21:36:01;;;;;;;15.05;4.37;;;;;;;21.45;51.78;99817.89;4827615;58;21799;-75
2021/07/30 21:41:08;;;;;;;9.25;3.60;;;;;;;21.34;52.07;99823.38;4708309;61;21170;-75
2021/07/30 21:46:18;;;;;;;12.93;3.98;;;;;;;21.22;52.49;99829.89;4738363;60;21194;-76
2021/07/30 21:51:26;;;;;;;15.65;4.15;;;;;;;21.24;52.96;99819.73;4802574;60;21110;-75
2021/07/30 21:56:31;;;;;;;9.73;3.80;;;;;;;21.22;53.13;99811.58;4737363;61;21202;-75
2021/07/30 22:01:37;;;;;;;13.20;3.95;;;;;;;21.09;53.38;99804.27;4769489;61;22446;-75
2021/07/30 22:06:42;;;;;;;22.93;9.13;;;;;;;21.04;54.28;99804.90;4777602;60;21193;-76
2021/07/30 22:11:48;;;;;;;27.80;11.85;;;;;;;21.05;54.63;99811.94;4815666;60;22033;-76
2021/07/30 22:16:54;;;;;;;35.10;10.08;;;;;;;21.05;54.71;99813.28;4811163;60;22130;-76
2021/07/30 22:22:01;;;;;;;32.73;9.70;;;;;;;21.00;54.52;99826.49;4757956;61;21201;-76
2021/07/30 22:27:08;;;;;;;21.97;7.37;;;;;;;20.93;54.57;99815.42;4802016;60;21194;-77
2021/07/30 22:32:14;;;;;;;12.18;4.72;;;;;;;20.78;54.72;99810.19;4818495;60;21253;-76
2021/07/30 22:37:19;;;;;;;10.08;4.50;;;;;;;20.68;55.27;99807.89;4818752;60;21219;-77
2021/07/30 22:42:34;;;;;;;9.70;4.30;;;;;;;20.59;55.72;99809.11;4839287;60;21240;-76
2021/07/30 22:47:35;;;;;;;7.05;4.62;;;;;;;20.54;56.05;99804.84;4834497;60;22055;-77
2021/07/30 22:52:41;;;;;;;8.80;4.30;;;;;;;20.49;56.48;99809.98;4766715;60;22059;-76
2021/07/30 22:57:47;;;;;;;7.33;2.95;;;;;;;20.44;56.80;99807.60;4798955;60;22126;-76
2021/07/30 23:02:53;;;;;;;5.28;3.10;;;;;;;20.36;56.97;99819.33;4846533;60;21238;-76
2021/07/30 23:07:59;;;;;;;5.08;3.58;;;;;;;20.23;56.82;99810.66;4793499;60;22260;-76
2021/07/30 23:13:04;;;;;;;7.78;3.17;;;;;;;20.08;57.18;99819.86;4820727;60;21212;-76
2021/07/30 23:18:10;;;;;;;4.80;3.02;;;;;;;19.92;57.25;99803.05;4936621;59;21224;-77
2021/07/30 23:23:15;;;;;;;18.30;4.15;;;;;;;19.69;57.72;99808.36;4876840;59;21115;-76
2021/07/30 23:28:22;;;;;;;17.02;3.70;;;;;;;19.63;58.38;99805.42;4881859;59;21186;-76
2021/07/30 23:33:27;;;;;;;3.85;2.92;;;;;;;19.63;58.56;99806.77;4821788;60;21192;-76
2021/07/30 23:38:35;;;;;;;5.87;3.30;;;;;;;19.64;58.84;99817.81;4829047;60;21238;-76
2021/07/30 23:43:44;;;;;;;4.37;3.05;;;;;;;19.62;58.96;99813.16;4902086;59;21189;-76
2021/07/30 23:48:50;;;;;;;6.87;2.77;;;;;;;19.51;58.89;99810.18;4911575;59;21192;-76